KNJK/NJK METAR and TAF weather

Enter ICAO airport designator
Station Type Date Time Source
KNJK METAR 2019/12/13 02:56 UTC NOAA

KNJK 130256Z 00000KT 10SM FEW250 14/03 A3018 RMK AO2 SLP237 T01390033 51003


Station Type Date Time Source
KNJK Decoded METAR 2019/12/13 02:56 UTC NOAA

El Centro, Naval Air Facility, CA, United States (KNJK) 32-49-30N 115-39-38W -13M
Dec 12, 2019 - 09:56 PM EST / 2019.12.13 0256 UTC
Wind: Calm:0
Visibility: 10 mile(s):0
Sky conditions: mostly clear
Temperature: 57.0 F (13.9 C)
Dew Point: 37.9 F (3.3 C)
Relative Humidity: 48%
Pressure (altimeter): 30.18 in. Hg (1022 hPa)
Pressure tendency: 0.01 inches (0.3 hPa) higher than three hours ago
ob: KNJK 130256Z 00000KT 10SM FEW250 14/03 A3018 RMK AO2 SLP237 T01390033 51003
cycle: 3

Station Type Date Time Source
KNJK TAF 2019/12/12 23:54 UTC NOAA

TAF TAF KNJK 1223/1323 VRB04KT 9999 BKN250 QNH3015INS
BECMG 1302/1303 SCT250 QNH3015INS T22/1223Z T07/1314Z FS30130

Example: see airport list